Bretagne — FNBR — position and weather

sailwx.info

Track history (hours):
 
Tides and Currents Weather Stations Pressure Air Temp Water Temp Dewpoint Dewpoint Depression Visibility Wind Speed Wind Dir Waves Ship Positions

Bretagne

Operator: Brittany Ferries

Last reported at 2014-Sep-01 22:25 UTC. Time now 2014-Sep-02 02:12 UTC.
Position N 50°14' W 001°24'.

Length 151 m; beam 27 m.

Type: Passenger vessel. MMSI: 227286000.

Date/timePositionNaut miles runAvg speedWind from/ knotsBaromVisibWave heightAir tempDewpointWater temp
2014-Sep-01 22:25N 50°14' W 001°24'1314.9
2014-Sep-01 21:33N 50°26' W 001°16'1515.1
2014-Sep-01 20:33N 50°37' W 001°01'1211.8
2014-Sep-01 19:33N 50°49' W 001°06'0 0.5
2014-Sep-01 18:32N 50°49' W 001°06'0 0.0
2014-Sep-01 17:32N 50°49' W 001°06'5 5.6
2014-Sep-01 16:33N 50°43' W 001°03'1414.0
2014-Sep-01 15:33N 50°31' W 001°13'1514.3
2014-Sep-01 14:31N 50°20' W 001°29'5417.5
2014-Sep-01 11:25N 49°29' W 002°00'1720.4
2014-Sep-01 10:33N 49°13' W 001°51'3517.7
2014-Sep-01 08:33N 48°38' W 002°02'7 2.3
2014-Sep-01 05:33N 48°44' W 002°09'1816.3
2014-Sep-01 04:26N 48°60' W 002°22'8714.2
2014-Aug-31 22:21N 50°17' W 001°23'1113.8
2014-Aug-31 21:33N 50°26' W 001°14'1413.9
2014-Aug-31 20:33N 50°37' W 001°00'1212.0
2014-Aug-31 19:34N 50°48' W 001°07'1 0.7
2014-Aug-31 18:32N 50°49' W 001°06'0 0.0
2014-Aug-31 17:32N 50°49' W 001°06'2 1.8
2014-Aug-31 16:34N 50°47' W 001°06'1515.2
2014-Aug-31 15:34N 50°32' W 001°09'94 7.8
2014-Aug-31 03:33N 49°11' W 002°23'7414.5
2014-Aug-30 22:26N 50°15' W 001°27'1212.6
2014-Aug-30 21:29N 50°25' W 001°15'1213.0
2014-Aug-30 20:33N 50°35' W 001°04'1110.6
2014-Aug-30 19:34N 50°45' W 001°05'4 3.5
2014-Aug-30 18:33N 50°49' W 001°06'0 0.0
2014-Aug-30 17:33N 50°49' W 001°06'4 3.7
2014-Aug-30 16:34N 50°45' W 001°05'1514.9
2014-Aug-30 15:33N 50°31' W 001°13'11 0.7
2014-Aug-29 22:09N 50°20' W 001°16'711.7
2014-Aug-29 21:34N 50°26' W 001°12'1211.5
2014-Aug-29 20:34N 50°37' W 001°06'9 8.8
2014-Aug-29 19:34N 50°45' W 001°05'3 3.1
2014-Aug-29 18:31N 50°49' W 001°06'0 0.0
2014-Aug-29 17:33N 50°49' W 001°06'4 3.9
2014-Aug-29 16:34N 50°45' W 001°05'1414.3
2014-Aug-29 15:33N 50°31' W 001°13'20 1.1
2014-Aug-28 22:28N 50°15' W 001°29'1112.5
2014-Aug-28 21:33N 50°24' W 001°19'1312.5
2014-Aug-28 20:33N 50°35' W 001°09'1111.5
2014-Aug-28 19:34N 50°46' W 001°05'3 2.4
2014-Aug-28 18:31N 50°49' W 001°06'0 0.0
2014-Aug-28 17:31N 50°49' W 001°06'7 6.9
2014-Aug-28 16:34N 50°42' W 001°03'1514.6
2014-Aug-28 15:33N 50°29' W 001°13'17 1.0
2014-Aug-27 22:31N 50°16' W 001°28'1212.6
2014-Aug-27 21:33N 50°26' W 001°17'1212.1
2014-Aug-27 20:33N 50°36' W 001°08'1111.2
2014-Aug-27 19:33N 50°48' W 001°07'1 1.3
2014-Aug-27 18:32N 50°49' W 001°06'0 0.0
2014-Aug-27 17:32N 50°49' W 001°06'5 5.6
2014-Aug-27 16:34N 50°43' W 001°03'28 1.6
2014-Aug-26 23:03N 50°19' W 001°25'714.2
2014-Aug-26 22:33N 50°24' W 001°18'1414.0
2014-Aug-26 21:34N 50°37' W 001°08'1211.8
2014-Aug-26 20:33N 50°48' W 001°07'1 0.8
2014-Aug-26 19:31N 50°49' W 001°06'0 0.0
2014-Aug-26 18:31N 50°49' W 001°06'5 5.3
2014-Aug-26 17:34N 50°44' W 001°03'9 9.3
2014-Aug-26 16:33N 50°35' W 001°08'19 1.0
2014-Aug-25 22:14N 50°20' W 001°26'812.7
2014-Aug-25 21:33N 50°27' W 001°18'1211.7
2014-Aug-25 20:33N 50°36' W 001°08'1111.2
2014-Aug-25 19:33N 50°48' W 001°07'1 1.2
2014-Aug-25 18:33N 50°49' W 001°06'0 0.0
2014-Aug-25 17:33N 50°49' W 001°06'7 6.6
2014-Aug-25 16:33N 50°42' W 001°03'31 1.7
2014-Aug-24 22:10N 50°16' W 001°30'914.2
2014-Aug-24 21:32N 50°24' W 001°21'1313.3
2014-Aug-24 20:33N 50°34' W 001°10'1111.0
2014-Aug-24 19:33N 50°45' W 001°05'4 3.8
2014-Aug-24 18:33N 50°49' W 001°06'0 0.0
2014-Aug-24 17:33N 50°49' W 001°06'4 4.5
2014-Aug-24 16:34N 50°44' W 001°04'32 1.8
2014-Aug-23 22:06N 50°16' W 001°29'815.2
2014-Aug-23 21:33N 50°23' W 001°22'1414.3
2014-Aug-23 20:33N 50°35' W 001°10'1111.2
2014-Aug-23 19:34N 50°46' W 001°05'  
Track history (hours):
 
Tides and Currents Weather Stations Pressure Air Temp Water Temp Dewpoint Dewpoint Depression Visibility Wind Speed Wind Dir Waves Ship Positions

Bretagne

Operator: Brittany Ferries

Last reported at 2014-Sep-01 22:25 UTC. Time now 2014-Sep-02 02:12 UTC.
Position N 50°14' W 001°24'.

Length 151 m; beam 27 m.

Type: Passenger vessel. MMSI: 227286000.

Date/timePositionNaut miles runAvg speedWind from/ knotsBaromVisibWave heightAir tempDewpointWater temp
2014-Sep-01 22:25N 50°14' W 001°24'1314.9
2014-Sep-01 21:33N 50°26' W 001°16'1515.1
2014-Sep-01 20:33N 50°37' W 001°01'1211.8
2014-Sep-01 19:33N 50°49' W 001°06'0 0.5
2014-Sep-01 18:32N 50°49' W 001°06'0 0.0
2014-Sep-01 17:32N 50°49' W 001°06'5 5.6
2014-Sep-01 16:33N 50°43' W 001°03'1414.0
2014-Sep-01 15:33N 50°31' W 001°13'1514.3
2014-Sep-01 14:31N 50°20' W 001°29'5417.5
2014-Sep-01 11:25N 49°29' W 002°00'1720.4
2014-Sep-01 10:33N 49°13' W 001°51'3517.7
2014-Sep-01 08:33N 48°38' W 002°02'7 2.3
2014-Sep-01 05:33N 48°44' W 002°09'1816.3
2014-Sep-01 04:26N 48°60' W 002°22'8714.2
2014-Aug-31 22:21N 50°17' W 001°23'1113.8
2014-Aug-31 21:33N 50°26' W 001°14'1413.9
2014-Aug-31 20:33N 50°37' W 001°00'1212.0
2014-Aug-31 19:34N 50°48' W 001°07'1 0.7
2014-Aug-31 18:32N 50°49' W 001°06'0 0.0
2014-Aug-31 17:32N 50°49' W 001°06'2 1.8
2014-Aug-31 16:34N 50°47' W 001°06'1515.2
2014-Aug-31 15:34N 50°32' W 001°09'94 7.8
2014-Aug-31 03:33N 49°11' W 002°23'7414.5
2014-Aug-30 22:26N 50°15' W 001°27'1212.6
2014-Aug-30 21:29N 50°25' W 001°15'1213.0
2014-Aug-30 20:33N 50°35' W 001°04'1110.6
2014-Aug-30 19:34N 50°45' W 001°05'4 3.5
2014-Aug-30 18:33N 50°49' W 001°06'0 0.0
2014-Aug-30 17:33N 50°49' W 001°06'4 3.7
2014-Aug-30 16:34N 50°45' W 001°05'1514.9
2014-Aug-30 15:33N 50°31' W 001°13'11 0.7
2014-Aug-29 22:09N 50°20' W 001°16'711.7
2014-Aug-29 21:34N 50°26' W 001°12'1211.5
2014-Aug-29 20:34N 50°37' W 001°06'9 8.8
2014-Aug-29 19:34N 50°45' W 001°05'3 3.1
2014-Aug-29 18:31N 50°49' W 001°06'0 0.0
2014-Aug-29 17:33N 50°49' W 001°06'4 3.9
2014-Aug-29 16:34N 50°45' W 001°05'1414.3
2014-Aug-29 15:33N 50°31' W 001°13'20 1.1
2014-Aug-28 22:28N 50°15' W 001°29'1112.5
2014-Aug-28 21:33N 50°24' W 001°19'1312.5
2014-Aug-28 20:33N 50°35' W 001°09'1111.5
2014-Aug-28 19:34N 50°46' W 001°05'3 2.4
2014-Aug-28 18:31N 50°49' W 001°06'0 0.0
2014-Aug-28 17:31N 50°49' W 001°06'7 6.9
2014-Aug-28 16:34N 50°42' W 001°03'1514.6
2014-Aug-28 15:33N 50°29' W 001°13'17 1.0
2014-Aug-27 22:31N 50°16' W 001°28'1212.6
2014-Aug-27 21:33N 50°26' W 001°17'1212.1
2014-Aug-27 20:33N 50°36' W 001°08'1111.2
2014-Aug-27 19:33N 50°48' W 001°07'1 1.3
2014-Aug-27 18:32N 50°49' W 001°06'0 0.0
2014-Aug-27 17:32N 50°49' W 001°06'5 5.6
2014-Aug-27 16:34N 50°43' W 001°03'28 1.6
2014-Aug-26 23:03N 50°19' W 001°25'714.2
2014-Aug-26 22:33N 50°24' W 001°18'1414.0
2014-Aug-26 21:34N 50°37' W 001°08'1211.8
2014-Aug-26 20:33N 50°48' W 001°07'1 0.8
2014-Aug-26 19:31N 50°49' W 001°06'0 0.0
2014-Aug-26 18:31N 50°49' W 001°06'5 5.3
2014-Aug-26 17:34N 50°44' W 001°03'9 9.3
2014-Aug-26 16:33N 50°35' W 001°08'19 1.0
2014-Aug-25 22:14N 50°20' W 001°26'812.7
2014-Aug-25 21:33N 50°27' W 001°18'1211.7
2014-Aug-25 20:33N 50°36' W 001°08'1111.2
2014-Aug-25 19:33N 50°48' W 001°07'1 1.2
2014-Aug-25 18:33N 50°49' W 001°06'0 0.0
2014-Aug-25 17:33N 50°49' W 001°06'7 6.6
2014-Aug-25 16:33N 50°42' W 001°03'31 1.7
2014-Aug-24 22:10N 50°16' W 001°30'914.2
2014-Aug-24 21:32N 50°24' W 001°21'1313.3
2014-Aug-24 20:33N 50°34' W 001°10'1111.0
2014-Aug-24 19:33N 50°45' W 001°05'4 3.8
2014-Aug-24 18:33N 50°49' W 001°06'0 0.0
2014-Aug-24 17:33N 50°49' W 001°06'4 4.5
2014-Aug-24 16:34N 50°44' W 001°04'32 1.8
2014-Aug-23 22:06N 50°16' W 001°29'815.2
2014-Aug-23 21:33N 50°23' W 001°22'1414.3
2014-Aug-23 20:33N 50°35' W 001°10'1111.2
2014-Aug-23 19:34N 50°46' W 001°05'  

Dump ship's entire track history